createdAt,value
2019-02-07T00:01:54.016Z,31.50
2019-02-07T00:04:23.039Z,36.53
2019-02-07T00:06:54.563Z,39.43
2019-02-07T00:09:22.618Z,41.67
2019-02-07T00:11:51.424Z,33.07
2019-02-07T00:14:20.299Z,45.23
2019-02-07T00:16:49.109Z,31.73
2019-02-07T00:19:17.970Z,42.87
2019-02-07T00:21:47.386Z,32.95
2019-02-07T00:24:16.330Z,34.78
2019-02-07T00:26:45.420Z,33.90
2019-02-07T00:29:14.364Z,32.83
2019-02-07T00:31:43.243Z,32.93
2019-02-07T00:34:12.109Z,33.70
2019-02-07T00:36:40.996Z,28.30
2019-02-07T00:39:10.352Z,33.47
2019-02-07T00:41:39.607Z,42.43
2019-02-07T00:44:08.637Z,33.43
2019-02-07T00:46:37.452Z,39.33
2019-02-07T00:49:06.330Z,36.10
2019-02-07T00:51:35.150Z,35.43
2019-02-07T00:54:04.579Z,35.50
2019-02-07T00:56:33.803Z,31.73
2019-02-07T00:59:02.755Z,31.60
2019-02-07T01:01:31.659Z,33.87
2019-02-07T01:04:00.703Z,37.73
2019-02-07T01:06:29.664Z,33.73
2019-02-07T01:08:58.524Z,34.50
2019-02-07T01:11:27.657Z,33.10
2019-02-07T01:13:56.520Z,38.53
2019-02-07T01:16:25.405Z,34.00
2019-02-07T01:18:54.279Z,45.30
2019-02-07T01:21:23.229Z,33.17
2019-02-07T01:23:52.273Z,35.37
2019-02-07T01:26:21.380Z,55.63
2019-02-07T01:28:50.185Z,30.50
2019-02-07T01:31:19.231Z,41.33
2019-02-07T01:33:48.168Z,36.73
2019-02-07T01:36:17.137Z,33.27
2019-02-07T01:38:45.906Z,33.53
2019-02-07T01:41:14.848Z,25.90
2019-02-07T01:43:43.638Z,31.90
2019-02-07T01:46:12.511Z,33.77
2019-02-07T01:48:41.307Z,32.40
2019-02-07T01:51:10.294Z,32.50
2019-02-07T01:53:39.232Z,28.13
2019-02-07T01:56:08.208Z,31.70
2019-02-07T01:58:37.175Z,25.53
2019-02-07T02:01:06.563Z,35.20
2019-02-07T02:03:35.478Z,20.53
2019-02-07T02:06:04.448Z,33.50
2019-02-07T02:08:33.319Z,46.67
2019-02-07T02:11:02.277Z,41.92
2019-02-07T02:13:31.508Z,38.90
2019-02-07T02:16:00.447Z,41.50
2019-02-07T02:18:29.236Z,28.77
2019-02-07T02:20:58.190Z,30.23
2019-02-07T02:23:27.181Z,23.17
2019-02-07T02:25:56.100Z,31.13
2019-02-07T02:28:25.314Z,27.82
2019-02-07T02:30:54.258Z,35.37
2019-02-07T02:33:23.169Z,20.03
2019-02-07T02:35:52.111Z,34.13
2019-02-07T02:38:21.292Z,30.97
2019-02-07T02:40:50.400Z,28.98
2019-02-07T02:43:20.725Z,34.10
2019-02-07T02:45:49.676Z,28.60
2019-02-07T02:48:18.534Z,37.90
2019-02-07T02:50:47.403Z,34.90
2019-02-07T02:53:16.298Z,27.60
2019-02-07T02:55:45.442Z,29.17
2019-02-07T02:58:14.329Z,26.80
2019-02-07T03:01:00.860Z,26.37
2019-02-07T03:03:35.201Z,33.42
2019-02-07T03:06:35.738Z,34.70
2019-02-07T03:09:28.588Z,28.43
2019-02-07T03:12:17.268Z,37.60
2019-02-07T03:15:04.217Z,28.87
2019-02-07T03:17:50.782Z,27.10
2019-02-07T03:20:32.836Z,29.37
2019-02-07T03:23:20.755Z,33.07
2019-02-07T03:26:07.388Z,25.63
2019-02-07T03:28:58.216Z,27.33
2019-02-07T03:31:39.958Z,26.83
2019-02-07T03:34:20.885Z,32.55
2019-02-07T03:37:14.877Z,19.40
2019-02-07T03:40:02.973Z,25.90
2019-02-07T03:42:50.008Z,23.87
2019-02-07T03:45:34.954Z,24.60
2019-02-07T03:48:17.758Z,23.20
2019-02-07T03:51:11.459Z,20.60
2019-02-07T03:53:57.172Z,26.50
2019-02-07T03:56:50.658Z,25.30
2019-02-07T03:59:37.293Z,38.37
2019-02-07T04:02:28.914Z,30.77
2019-02-07T04:05:35.098Z,31.27
2019-02-07T04:08:25.110Z,32.97
2019-02-07T04:11:08.021Z,21.20
2019-02-07T04:13:49.631Z,40.60
2019-02-07T04:16:36.194Z,33.70
2019-02-07T04:19:14.677Z,44.70
2019-02-07T04:22:02.650Z,37.73
2019-02-07T04:24:57.933Z,39.40
2019-02-07T04:27:45.841Z,36.73
2019-02-07T04:30:26.265Z,35.90
2019-02-07T04:33:13.034Z,30.70
2019-02-07T04:36:03.600Z,33.50
2019-02-07T04:38:57.450Z,32.10
2019-02-07T04:41:40.620Z,29.33
2019-02-07T04:44:27.514Z,43.03
2019-02-07T04:47:14.050Z,39.73
2019-02-07T04:50:04.902Z,35.10
2019-02-07T04:52:59.055Z,29.10
2019-02-07T04:55:48.562Z,35.37
2019-02-07T04:58:31.222Z,34.43
2019-02-07T05:01:26.624Z,32.10
2019-02-07T05:04:04.245Z,27.27
2019-02-07T05:06:44.699Z,32.80
2019-02-07T05:09:31.545Z,32.10
2019-02-07T05:12:11.095Z,30.00
2019-02-07T05:15:08.121Z,33.57
2019-02-07T05:17:55.926Z,25.53
2019-02-07T05:20:43.591Z,24.20
2019-02-07T05:23:31.458Z,35.30
2019-02-07T05:26:13.593Z,30.10
2019-02-07T05:29:04.189Z,25.73
2019-02-07T05:32:10.287Z,21.60
2019-02-07T05:34:58.164Z,31.90
2019-02-07T05:37:46.051Z,28.77
2019-02-07T05:40:20.847Z,22.30
2019-02-07T05:43:08.656Z,29.37
2019-02-07T05:45:56.515Z,27.50
2019-02-07T05:48:43.257Z,28.32
2019-02-07T05:51:19.733Z,29.10
2019-02-07T05:54:06.057Z,33.45
2019-02-07T05:56:52.721Z,28.03
2019-02-07T05:59:39.513Z,35.23
2019-02-07T06:02:42.648Z,27.77
2019-02-07T06:05:29.441Z,34.83
2019-02-07T06:08:14.604Z,39.77
2019-02-07T06:10:53.144Z,35.97
2019-02-07T06:13:39.593Z,28.55
2019-02-07T06:16:19.918Z,31.37
2019-02-07T06:19:14.232Z,31.33
2019-02-07T06:22:11.197Z,23.67
2019-02-07T06:24:59.101Z,36.77
2019-02-07T06:27:50.175Z,25.87
2019-02-07T06:30:31.059Z,38.23
2019-02-07T06:33:22.335Z,23.73
2019-02-07T06:36:14.078Z,26.90
2019-02-07T06:38:58.186Z,30.57
2019-02-07T06:41:46.064Z,38.55
2019-02-07T06:44:37.362Z,31.47
2019-02-07T06:47:20.810Z,37.00
2019-02-07T06:50:07.487Z,40.50
2019-02-07T06:52:54.621Z,28.73
2019-02-07T06:55:44.860Z,33.33
2019-02-07T06:58:24.508Z,30.73
2019-02-07T07:01:14.318Z,24.53
2019-02-07T07:04:01.401Z,23.47
2019-02-07T07:06:47.803Z,34.73
2019-02-07T07:09:48.175Z,30.47
2019-02-07T07:12:29.293Z,23.95
2019-02-07T07:15:11.000Z,29.48
2019-02-07T07:17:50.860Z,24.93
2019-02-07T07:20:38.740Z,25.20
2019-02-07T07:23:38.882Z,25.00
2019-02-07T07:26:36.006Z,26.60
2019-02-07T07:29:27.183Z,25.40
2019-02-07T07:32:10.266Z,23.53
2019-02-07T07:34:56.682Z,24.50
2019-02-07T07:37:43.488Z,33.17
2019-02-07T07:40:24.699Z,24.83
2019-02-07T07:43:15.911Z,21.27
2019-02-07T07:46:03.854Z,16.47
2019-02-07T07:48:50.337Z,26.90
2019-02-07T07:51:37.244Z,25.72
2019-02-07T07:54:24.350Z,32.23
2019-02-07T07:57:24.024Z,27.97
2019-02-07T08:00:08.308Z,27.10
2019-02-07T08:02:55.009Z,31.27
2019-02-07T08:05:42.037Z,24.25
2019-02-07T08:08:28.195Z,23.43
2019-02-07T08:11:07.248Z,29.80
2019-02-07T08:13:58.005Z,23.07
2019-02-07T08:16:44.751Z,19.63
2019-02-07T08:19:31.874Z,21.57
2019-02-07T08:22:09.894Z,30.43
2019-02-07T08:24:46.402Z,34.63
2019-02-07T08:27:34.213Z,27.47
2019-02-07T08:30:20.365Z,32.50
2019-02-07T08:33:14.283Z,27.70
2019-02-07T08:36:06.010Z,31.63
2019-02-07T08:39:01.942Z,23.60
2019-02-07T08:41:47.945Z,26.13
2019-02-07T08:44:29.032Z,24.40
2019-02-07T08:47:16.679Z,23.27
2019-02-07T08:50:08.920Z,15.77
2019-02-07T08:52:49.816Z,20.73
2019-02-07T08:55:35.055Z,28.90
2019-02-07T08:58:26.098Z,23.60
2019-02-07T09:01:17.123Z,25.17
2019-02-07T09:03:58.554Z,24.63
2019-02-07T09:06:49.561Z,34.10
2019-02-07T09:09:37.606Z,21.53
2019-02-07T09:12:23.248Z,25.73
2019-02-07T09:15:16.944Z,18.23
2019-02-07T09:18:10.259Z,18.43
2019-02-07T09:20:52.491Z,21.30
2019-02-07T09:23:40.646Z,20.97
2019-02-07T09:26:32.380Z,16.85
2019-02-07T09:29:19.184Z,28.27
2019-02-07T09:32:05.969Z,13.13
2019-02-07T09:34:59.773Z,15.23
2019-02-07T09:37:44.713Z,18.70
2019-02-07T09:40:31.771Z,19.00
2019-02-07T09:43:25.579Z,20.30
2019-02-07T09:46:24.972Z,25.30
2019-02-07T09:49:22.181Z,22.73
2019-02-07T09:52:10.191Z,20.75
2019-02-07T09:55:01.623Z,19.03
2019-02-07T09:57:43.382Z,25.60
2019-02-07T10:00:35.663Z,21.35
2019-02-07T10:03:18.287Z,26.33
2019-02-07T10:06:04.809Z,17.00
2019-02-07T10:08:52.797Z,23.43
2019-02-07T10:11:39.743Z,21.70
2019-02-07T10:14:20.809Z,18.65
2019-02-07T10:17:12.204Z,24.85
2019-02-07T10:20:05.995Z,20.13
2019-02-07T10:22:52.450Z,25.50
2019-02-07T10:25:40.504Z,17.27
2019-02-07T10:28:37.699Z,22.33
2019-02-07T10:31:25.685Z,19.90
2019-02-07T10:34:12.609Z,19.07
2019-02-07T10:36:58.496Z,24.90
2019-02-07T10:39:45.380Z,20.60
2019-02-07T10:42:23.924Z,20.13
2019-02-07T10:45:13.045Z,19.80
2019-02-07T10:48:13.630Z,29.30
2019-02-07T10:51:20.248Z,21.77
2019-02-07T10:53:55.966Z,23.15
2019-02-07T10:56:49.784Z,17.47
2019-02-07T10:59:40.902Z,18.53
2019-02-07T11:02:28.322Z,27.93
2019-02-07T11:05:32.314Z,24.23
2019-02-07T11:08:10.926Z,17.10
2019-02-07T11:11:02.958Z,22.40
2019-02-07T11:13:59.880Z,16.20
2019-02-07T11:16:44.635Z,16.50
2019-02-07T11:19:31.251Z,16.83
2019-02-07T11:22:18.080Z,20.63
2019-02-07T11:25:04.997Z,23.60
2019-02-07T11:27:57.477Z,25.03
2019-02-07T11:30:44.296Z,19.40
2019-02-07T11:33:30.901Z,22.80
2019-02-07T11:36:37.224Z,27.63
2019-02-07T11:39:29.786Z,19.50
2019-02-07T11:42:16.523Z,20.10
2019-02-07T11:44:57.476Z,16.80
2019-02-07T11:47:42.566Z,22.00
2019-02-07T11:50:36.505Z,26.27
2019-02-07T11:53:14.540Z,19.93
2019-02-07T11:56:01.824Z,19.90
2019-02-07T11:58:48.333Z,24.37
2019-02-07T12:01:27.340Z,29.10
2019-02-07T12:04:14.168Z,21.57
2019-02-07T12:06:53.730Z,26.83
2019-02-07T12:09:43.392Z,18.30
2019-02-07T12:12:23.076Z,20.00
2019-02-07T12:15:12.972Z,24.53
2019-02-07T12:17:59.859Z,19.77
2019-02-07T12:20:47.740Z,18.00
2019-02-07T12:23:34.455Z,20.70
2019-02-07T12:26:19.558Z,21.17
2019-02-07T12:29:03.290Z,21.60
2019-02-07T12:32:09.537Z,18.47
2019-02-07T12:34:56.065Z,18.17
2019-02-07T12:37:49.883Z,21.45
2019-02-07T12:40:39.064Z,23.10
2019-02-07T12:43:26.807Z,23.67
2019-02-07T12:46:22.557Z,17.17
2019-02-07T12:49:13.533Z,23.23
2019-02-07T12:52:04.575Z,17.67
2019-02-07T12:54:41.779Z,33.03
2019-02-07T12:57:24.317Z,33.33
2019-02-07T13:00:12.251Z,24.60
2019-02-07T13:03:09.539Z,22.42
2019-02-07T13:06:09.764Z,14.90
2019-02-07T13:08:56.469Z,30.77
2019-02-07T13:11:45.083Z,26.70
2019-02-07T13:14:32.945Z,19.50
2019-02-07T13:17:17.190Z,22.63
2019-02-07T13:20:03.761Z,21.65
2019-02-07T13:22:42.556Z,16.67
2019-02-07T13:25:27.003Z,15.60
2019-02-07T13:28:17.844Z,25.27
2019-02-07T13:31:05.767Z,20.27
2019-02-07T13:34:05.527Z,28.05
2019-02-07T13:36:52.751Z,24.60
2019-02-07T13:39:40.602Z,17.37
2019-02-07T13:42:31.943Z,19.73
2019-02-07T13:45:19.891Z,22.23
2019-02-07T13:48:05.459Z,20.33
2019-02-07T13:51:05.362Z,18.40
2019-02-07T13:53:41.666Z,22.30
2019-02-07T13:56:32.990Z,27.80
2019-02-07T13:59:20.547Z,21.43
2019-02-07T14:02:04.083Z,23.73
2019-02-07T14:04:42.420Z,21.80
2019-02-07T14:07:27.488Z,19.80
2019-02-07T14:10:08.500Z,23.77
2019-02-07T14:12:56.114Z,21.93
2019-02-07T14:15:50.052Z,22.17
2019-02-07T14:18:27.521Z,20.00
2019-02-07T14:21:10.032Z,27.37
2019-02-07T14:24:00.755Z,27.30
2019-02-07T14:26:51.475Z,23.70
2019-02-07T14:29:42.437Z,24.20
2019-02-07T14:32:22.567Z,20.37
2019-02-07T14:35:13.454Z,22.93
2019-02-07T14:38:10.088Z,23.03
2019-02-07T14:40:56.696Z,29.90
2019-02-07T14:43:43.399Z,27.33
2019-02-07T14:46:33.262Z,20.97
2019-02-07T14:49:02.048Z,25.40
2019-02-07T14:51:30.912Z,21.80
2019-02-07T14:54:00.743Z,26.23
2019-02-07T14:56:30.068Z,20.80
2019-02-07T14:59:01.376Z,23.60
2019-02-07T15:01:29.628Z,32.77
2019-02-07T15:03:58.572Z,22.33
2019-02-07T15:06:27.444Z,20.48
2019-02-07T15:08:56.314Z,26.20
2019-02-07T15:11:25.253Z,28.57
2019-02-07T15:13:54.132Z,26.80
2019-02-07T15:16:23.095Z,29.63
2019-02-07T15:18:51.899Z,34.43
2019-02-07T15:21:20.806Z,36.13
2019-02-07T15:23:49.597Z,42.50
2019-02-07T15:26:18.463Z,41.47
2019-02-07T15:28:48.272Z,39.65
2019-02-07T15:31:17.131Z,25.72
2019-02-07T15:33:46.005Z,26.37
2019-02-07T15:36:14.970Z,37.10
2019-02-07T15:38:43.814Z,27.17
2019-02-07T15:41:12.883Z,26.60
2019-02-07T15:43:42.511Z,29.93
2019-02-07T15:46:12.173Z,28.13
2019-02-07T15:48:41.171Z,32.40
2019-02-07T15:51:10.514Z,33.90
2019-02-07T15:53:39.567Z,40.93
2019-02-07T15:56:08.515Z,41.50
2019-02-07T15:59:03.673Z,35.98
2019-02-07T16:01:39.166Z,31.77
2019-02-07T16:04:27.117Z,31.50
2019-02-07T16:06:56.083Z,40.67
2019-02-07T16:09:25.033Z,30.93
2019-02-07T16:11:53.960Z,32.77
2019-02-07T16:14:22.932Z,34.37
2019-02-07T16:16:51.793Z,38.37
2019-02-07T16:19:20.907Z,30.73
2019-02-07T16:21:49.770Z,30.53
2019-02-07T16:24:18.813Z,30.12
2019-02-07T16:26:47.596Z,31.80
2019-02-07T16:29:16.494Z,40.50
2019-02-07T16:31:45.359Z,32.20
2019-02-07T16:34:14.574Z,32.77
2019-02-07T16:36:43.936Z,38.73
2019-02-07T16:39:12.892Z,31.50
2019-02-07T16:41:41.764Z,33.07
2019-02-07T16:44:10.703Z,33.90
2019-02-07T16:46:39.575Z,37.60
2019-02-07T16:49:08.902Z,32.13
2019-02-07T16:51:37.683Z,33.10
2019-02-07T16:54:06.630Z,28.03
2019-02-07T16:56:35.505Z,38.38
2019-02-07T16:59:04.564Z,43.37
2019-02-07T17:01:33.520Z,39.37
2019-02-07T17:04:02.381Z,29.93
2019-02-07T17:06:31.338Z,39.23
2019-02-07T17:09:00.282Z,25.13
2019-02-07T17:11:29.233Z,24.70
2019-02-07T17:13:58.281Z,26.20
2019-02-07T17:16:38.099Z,26.73
2019-02-07T17:19:07.049Z,23.53
2019-02-07T17:21:35.916Z,22.10
2019-02-07T17:24:05.096Z,23.03
2019-02-07T17:26:33.970Z,24.23
2019-02-07T17:29:02.826Z,19.83
2019-02-07T17:31:31.712Z,15.80
2019-02-07T17:34:00.790Z,27.90
2019-02-07T17:36:29.583Z,12.07
2019-02-07T17:38:58.537Z,21.13
2019-02-07T17:41:27.415Z,9.03
2019-02-07T17:43:56.325Z,16.97
2019-02-07T17:46:25.215Z,11.20
2019-02-07T17:48:54.430Z,13.53
2019-02-07T17:51:23.638Z,12.90
2019-02-07T17:53:52.548Z,8.37
2019-02-07T17:56:22.529Z,14.03
2019-02-07T17:58:51.353Z,11.93
2019-02-07T18:01:20.244Z,15.47
2019-02-07T18:03:49.110Z,8.83
2019-02-07T18:06:18.084Z,12.53
2019-02-07T18:08:46.960Z,13.13
2019-02-07T18:11:15.839Z,8.93
2019-02-07T18:13:44.610Z,9.63
2019-02-07T18:16:13.498Z,11.80
2019-02-07T18:18:42.481Z,9.77
2019-02-07T18:21:11.666Z,9.83
2019-02-07T18:23:40.524Z,8.57
2019-02-07T18:26:09.406Z,10.67
2019-02-07T18:28:38.305Z,7.08
2019-02-07T18:31:07.579Z,7.93
2019-02-07T18:33:36.599Z,9.05
2019-02-07T18:36:05.469Z,8.30
2019-02-07T18:38:34.285Z,6.10
2019-02-07T18:41:03.108Z,8.20
2019-02-07T18:43:31.955Z,9.30
2019-02-07T18:46:00.774Z,6.85
2019-02-07T18:48:29.628Z,12.17
2019-02-07T18:50:58.463Z,11.90
2019-02-07T18:53:27.690Z,9.60
2019-02-07T18:55:56.702Z,8.80
2019-02-07T18:58:25.596Z,10.67
2019-02-07T19:00:54.534Z,33.03
2019-02-07T19:03:23.433Z,16.27
2019-02-07T19:05:52.317Z,11.10
2019-02-07T19:08:21.681Z,12.63
2019-02-07T19:10:50.729Z,8.13
2019-02-07T19:13:19.593Z,13.60
2019-02-07T19:15:51.417Z,9.27
2019-02-07T19:18:20.317Z,9.70
2019-02-07T19:20:49.213Z,10.30
2019-02-07T19:23:18.141Z,8.38
2019-02-07T19:25:47.116Z,8.50
2019-02-07T19:28:16.125Z,11.80
2019-02-07T19:30:45.156Z,12.43
2019-02-07T19:33:13.954Z,8.63
2019-02-07T19:35:42.906Z,19.70
2019-02-07T19:38:11.963Z,19.57
2019-02-07T19:40:41.206Z,25.70
2019-02-07T19:43:10.211Z,22.80
2019-02-07T19:45:39.053Z,24.80
2019-02-07T19:48:08.023Z,20.20
2019-02-07T19:50:36.968Z,22.20
2019-02-07T19:53:05.895Z,15.93
2019-02-07T19:55:35.137Z,12.10
2019-02-07T19:58:04.354Z,16.32
2019-02-07T20:00:33.602Z,13.13
2019-02-07T20:03:02.746Z,11.00
2019-02-07T20:05:31.900Z,13.67
2019-02-07T20:08:00.939Z,10.50
2019-02-07T20:10:30.021Z,7.80
2019-02-07T20:12:58.990Z,14.50
2019-02-07T20:15:30.409Z,18.27
2019-02-07T20:18:00.096Z,21.07
2019-02-07T20:20:29.499Z,12.80
2019-02-07T20:22:58.681Z,7.70
2019-02-07T20:25:27.894Z,9.83
2019-02-07T20:27:57.122Z,11.83
2019-02-07T20:30:38.377Z,10.85
2019-02-07T20:33:08.802Z,13.10
2019-02-07T20:35:37.745Z,25.53
2019-02-07T20:38:07.218Z,13.90
2019-02-07T20:40:36.266Z,20.33
2019-02-07T20:43:06.260Z,12.63
2019-02-07T20:45:35.407Z,9.13
2019-02-07T20:48:04.600Z,11.90
2019-02-07T20:50:33.477Z,7.25
2019-02-07T20:53:02.279Z,4.05
2019-02-07T20:55:31.206Z,3.57
2019-02-07T20:58:00.083Z,8.33
2019-02-07T21:00:30.918Z,4.50
2019-02-07T21:02:59.885Z,4.60
2019-02-07T21:05:29.891Z,5.90
2019-02-07T21:07:59.064Z,4.93
2019-02-07T21:10:29.850Z,2.50
2019-02-07T21:12:58.789Z,14.33
2019-02-07T21:15:28.954Z,5.35
2019-02-07T21:17:58.779Z,9.05
2019-02-07T21:20:29.211Z,6.17
2019-02-07T21:22:59.651Z,5.28
2019-02-07T21:25:34.734Z,12.50
2019-02-07T21:28:04.139Z,9.03
2019-02-07T21:30:33.180Z,9.07
2019-02-07T21:33:03.022Z,7.50
2019-02-07T21:35:31.874Z,6.15
2019-02-07T21:38:00.821Z,5.93
2019-02-07T21:40:31.093Z,12.53
2019-02-07T21:43:00.391Z,3.73
2019-02-07T21:45:29.984Z,4.60
2019-02-07T21:47:59.817Z,5.00
2019-02-07T21:50:30.186Z,7.70
2019-02-07T21:52:59.841Z,4.30
2019-02-07T21:55:29.966Z,9.60
2019-02-07T21:57:59.981Z,7.25
2019-02-07T22:02:38.528Z,5.72
2019-02-07T22:05:07.890Z,1.67
2019-02-07T22:07:36.679Z,9.77
2019-02-07T22:10:07.498Z,6.50
2019-02-07T22:12:36.362Z,4.10
2019-02-07T22:15:07.620Z,2.73
2019-02-07T22:17:36.420Z,1.97
2019-02-07T22:20:08.416Z,2.20
2019-02-07T22:22:37.209Z,4.23
2019-02-07T22:25:07.332Z,2.80
2019-02-07T22:27:36.848Z,2.13
2019-02-07T22:30:08.609Z,2.05
2019-02-07T22:32:37.543Z,7.13
2019-02-07T22:35:07.548Z,4.43
2019-02-07T22:37:36.337Z,3.00
2019-02-07T22:40:08.338Z,2.10
2019-02-07T22:42:37.286Z,3.57
2019-02-07T22:45:07.579Z,4.33
2019-02-07T22:47:36.454Z,3.27
2019-02-07T22:50:09.471Z,7.20
2019-02-07T22:52:38.333Z,4.00
2019-02-07T22:55:07.853Z,2.80
2019-02-07T22:57:36.637Z,4.60
2019-02-07T23:00:41.376Z,2.33
2019-02-07T23:03:10.665Z,2.10
2019-02-07T23:05:39.632Z,3.50
2019-02-07T23:08:08.667Z,2.63
2019-02-07T23:10:37.641Z,6.83
2019-02-07T23:13:07.706Z,12.37
2019-02-07T23:15:36.758Z,3.10
2019-02-07T23:18:07.891Z,4.12
2019-02-07T23:20:37.245Z,5.67
2019-02-07T23:23:07.697Z,2.30
2019-02-07T23:25:36.731Z,8.53
2019-02-07T23:28:06.224Z,5.03
2019-02-07T23:30:35.203Z,5.30
2019-02-07T23:33:04.953Z,6.10
2019-02-07T23:35:33.923Z,4.27
2019-02-07T23:38:03.602Z,2.77
2019-02-07T23:40:32.456Z,6.33
2019-02-07T23:43:01.384Z,5.10
2019-02-07T23:45:30.319Z,2.90
2019-02-07T23:47:59.166Z,3.37
2019-02-07T23:50:28.099Z,3.00
2019-02-07T23:52:56.967Z,3.33
2019-02-07T23:55:25.840Z,4.03
2019-02-07T23:57:54.678Z,5.27
